Time;durP1;ratioP1;P1;durP2;ratioP2;P2;SDS_P1;SDS_P2;PMS_P1;PMS_P2;Temp;Humidity;BMP_temperature;BMP_pressure;BME280_temperature;BME280_humidity;BME280_pressure;Samples;Min_cycle;Max_cycle;Signal;HPM_P1;HPM_P2
2022/01/08 00:01:31;;;;;;;15.47;9.37;;;;;;;-6.58;81.30;99442.94;4986907;23;20236;-83
2022/01/08 00:04:29;;;;;;;13.27;9.10;;;;;;;-6.62;81.37;99446.69;5009368;23;20232;-81
2022/01/08 00:10:47;;;;;;;17.70;11.03;;;;;;;-6.44;81.69;99458.31;5020126;23;20212;-80
2022/01/08 00:13:27;;;;;;;20.60;11.37;;;;;;;-6.41;81.53;99452.06;5005387;23;20236;-81
2022/01/08 00:16:21;;;;;;;22.37;12.83;;;;;;;-6.37;80.75;99445.66;4975539;23;20225;-81
2022/01/08 00:18:52;;;;;;;23.63;12.50;;;;;;;-6.41;80.81;99446.84;4981771;23;20231;-81
2022/01/08 00:21:29;;;;;;;21.10;11.80;;;;;;;-6.37;81.15;99438.66;4975349;29;20220;-81
2022/01/08 00:23:57;;;;;;;17.20;11.03;;;;;;;-6.28;80.38;99445.78;4989557;23;20240;-80
2022/01/08 00:26:49;;;;;;;13.27;9.13;;;;;;;-6.41;80.50;99432.03;4968118;23;20233;-82
2022/01/08 00:29:22;;;;;;;14.77;9.33;;;;;;;-6.30;80.19;99439.84;4968794;23;20205;-81
2022/01/08 00:31:49;;;;;;;15.23;9.83;;;;;;;-6.22;80.09;99448.88;4964359;23;20254;-81
2022/01/08 00:34:19;;;;;;;14.33;9.07;;;;;;;-6.14;80.32;99438.66;4956138;29;20237;-80
2022/01/08 00:36:49;;;;;;;14.83;10.10;;;;;;;-6.17;79.66;99424.09;4955504;29;20260;-85
2022/01/08 00:39:37;;;;;;;15.07;9.13;;;;;;;-5.92;79.09;99423.00;4956964;29;20247;-81
2022/01/08 00:42:29;;;;;;;15.27;9.63;;;;;;;-5.85;78.81;99426.78;4957027;29;20237;-81
2022/01/08 00:45:17;;;;;;;12.50;9.20;;;;;;;-5.81;78.87;99426.41;4979233;23;20240;-81
2022/01/08 00:48:12;;;;;;;16.30;9.23;;;;;;;-5.83;79.23;99433.50;4975749;29;20256;-81
2022/01/08 00:50:45;;;;;;;15.03;9.10;;;;;;;-5.81;79.94;99436.84;4976038;29;20267;-80
2022/01/08 00:53:13;;;;;;;14.73;9.43;;;;;;;-5.73;80.22;99428.41;4973908;23;20233;-81
2022/01/08 00:55:56;;;;;;;14.73;9.67;;;;;;;-5.57;80.15;99441.06;4951081;23;20200;-82
2022/01/08 00:58:24;;;;;;;14.93;9.53;;;;;;;-5.50;80.27;99439.59;4999926;23;20228;-81
2022/01/08 01:01:03;;;;;;;13.17;9.03;;;;;;;-5.47;80.21;99431.56;4992177;23;20235;-81
2022/01/08 01:03:54;;;;;;;13.43;9.43;;;;;;;-5.32;79.90;99437.31;4989431;23;20234;-82
2022/01/08 01:06:30;;;;;;;12.07;8.93;;;;;;;-5.22;79.97;99439.03;4991640;23;20243;-81
2022/01/08 01:08:59;;;;;;;15.10;9.83;;;;;;;-5.19;80.25;99424.94;5000519;23;20235;-80
2022/01/08 01:12:03;;;;;;;13.67;9.63;;;;;;;-5.05;80.02;99427.25;4985908;23;20239;-82
2022/01/08 01:14:37;;;;;;;12.87;9.13;;;;;;;-4.97;79.35;99417.81;5000979;23;20260;-81
2022/01/08 01:17:22;;;;;;;16.47;10.23;;;;;;;-4.91;78.82;99424.31;5006317;23;20217;-82
2022/01/08 01:20:33;;;;;;;14.47;9.57;;;;;;;-4.82;79.64;99426.16;4960846;23;20244;-81
2022/01/08 01:23:11;;;;;;;13.83;9.40;;;;;;;-4.90;79.11;99387.59;4986671;23;20211;-80
2022/01/08 01:27:06;;;;;;;12.53;8.90;;;;;;;-4.62;78.51;99417.47;4995297;23;20243;-81
2022/01/08 01:30:16;;;;;;;16.70;10.37;;;;;;;-4.51;78.60;99424.41;5007735;23;20211;-81
2022/01/08 01:48:36;;;;;;;13.30;8.93;;;;;;;-4.05;76.88;99416.94;5003600;23;20211;-81
2022/01/08 01:51:46;;;;;;;11.63;8.23;;;;;;;-3.99;77.15;99418.19;5000131;23;20222;-80
2022/01/08 01:54:35;;;;;;;13.53;9.13;;;;;;;-3.85;76.57;99411.75;5018215;23;20559;-81
2022/01/08 01:57:53;;;;;;;12.53;9.17;;;;;;;-3.88;75.94;99388.47;4992411;23;20227;-80
2022/01/08 02:00:52;;;;;;;13.30;8.83;;;;;;;-3.73;75.82;99408.88;5019144;23;20235;-79
2022/01/08 02:03:44;;;;;;;13.77;9.43;;;;;;;-3.66;75.23;99410.03;4978186;23;20241;-80
2022/01/08 02:06:14;;;;;;;12.73;8.77;;;;;;;-3.64;74.73;99413.31;4958683;28;20194;-80
2022/01/08 02:09:04;;;;;;;12.60;9.00;;;;;;;-3.76;74.53;99382.16;4994227;23;20232;-81
2022/01/08 02:12:32;;;;;;;12.67;8.60;;;;;;;-3.61;75.05;99401.75;4977766;28;20237;-80
2022/01/08 02:15:49;;;;;;;13.13;9.20;;;;;;;-3.67;74.61;99383.97;4991091;23;20227;-80
2022/01/08 02:18:50;;;;;;;13.23;9.10;;;;;;;-3.57;74.76;99390.88;4981832;28;20251;-79
2022/01/08 02:21:20;;;;;;;15.60;9.10;;;;;;;-3.53;74.35;99385.34;4995586;28;20161;-79
2022/01/08 02:24:20;;;;;;;12.90;8.97;;;;;;;-3.48;74.05;99377.91;5081620;23;20228;-79
2022/01/08 02:26:55;;;;;;;12.43;8.47;;;;;;;-3.52;74.44;99363.44;4990123;23;20318;-79
2022/01/08 02:29:33;;;;;;;13.40;9.37;;;;;;;-3.44;74.35;99366.19;4969809;23;20251;-80
2022/01/08 02:32:28;;;;;;;14.47;9.53;;;;;;;-3.43;74.66;99362.63;4975962;23;20236;-80
2022/01/08 02:35:04;;;;;;;14.10;9.40;;;;;;;-3.43;75.22;99350.34;4935523;29;20221;-80
2022/01/08 02:37:34;;;;;;;15.93;9.53;;;;;;;-3.50;74.66;99327.47;4955383;23;20236;-79
2022/01/08 02:40:27;;;;;;;14.83;9.43;;;;;;;-3.50;75.42;99330.09;4984700;23;20255;-80
2022/01/08 02:43:08;;;;;;;12.80;8.97;;;;;;;-3.32;74.89;99350.22;4984100;23;20219;-79
2022/01/08 02:45:57;;;;;;;12.87;9.40;;;;;;;-3.38;75.46;99342.91;4991035;28;20205;-80
2022/01/08 02:48:44;;;;;;;13.43;9.53;;;;;;;-3.29;75.45;99347.31;5001490;23;20236;-80
2022/01/08 02:51:24;;;;;;;14.93;10.00;;;;;;;-3.35;75.27;99334.78;4973171;23;20292;-80
2022/01/08 02:53:57;;;;;;;13.83;9.50;;;;;;;-3.26;75.40;99344.41;4982258;28;20240;-79
2022/01/08 02:56:24;;;;;;;14.40;9.83;;;;;;;-3.33;75.10;99330.22;5004433;23;20228;-80
2022/01/08 02:58:56;;;;;;;13.23;9.83;;;;;;;-3.25;75.29;99338.22;4984329;23;20232;-79
2022/01/08 03:01:56;;;;;;;13.77;10.03;;;;;;;-3.29;75.25;99315.06;4978381;23;20229;-79
2022/01/08 03:04:27;;;;;;;14.40;9.97;;;;;;;-3.16;75.36;99339.16;4996240;28;20251;-80
2022/01/08 03:07:32;;;;;;;15.43;10.27;;;;;;;-3.21;75.26;99313.38;4990300;23;20236;-80
2022/01/08 03:10:08;;;;;;;14.67;9.90;;;;;;;-3.16;75.04;99326.91;4997315;28;20200;-79
2022/01/08 03:12:58;;;;;;;14.63;10.07;;;;;;;-3.12;75.21;99328.25;5017206;28;20228;-80
2022/01/08 03:15:35;;;;;;;16.57;10.53;;;;;;;-3.11;75.39;99329.94;5005894;23;20271;-79
2022/01/08 03:18:39;;;;;;;12.70;9.27;;;;;;;-3.06;75.04;99326.88;4998006;23;20289;-80
2022/01/08 03:21:19;;;;;;;13.70;9.80;;;;;;;-3.06;74.99;99332.13;4965329;23;20317;-80
2022/01/08 03:24:27;;;;;;;13.37;9.67;;;;;;;-3.13;75.23;99321.38;4957856;29;20230;-80
2022/01/08 03:27:04;;;;;;;13.10;9.80;;;;;;;-3.14;75.37;99303.19;4982678;23;20590;-80
2022/01/08 03:29:35;;;;;;;14.23;9.93;;;;;;;-3.03;75.07;99321.34;4997866;23;20240;-80
2022/01/08 03:32:22;;;;;;;13.67;9.30;;;;;;;-3.02;75.05;99320.38;4967749;28;20230;-79
2022/01/08 03:35:24;;;;;;;16.27;9.83;;;;;;;-2.97;74.97;99322.59;5009826;23;20204;-79
2022/01/08 03:38:05;;;;;;;12.87;9.17;;;;;;;-2.93;75.20;99321.34;4996954;28;20227;-79
2022/01/08 03:40:40;;;;;;;12.60;9.20;;;;;;;-2.90;75.12;99307.97;4996086;28;20235;-80
2022/01/08 03:43:10;;;;;;;13.63;9.90;;;;;;;-2.87;75.68;99313.75;4984047;23;20184;-79
2022/01/08 03:45:42;;;;;;;15.83;9.93;;;;;;;-2.86;75.07;99310.16;4970320;23;20240;-80
2022/01/08 03:49:13;;;;;;;14.13;9.80;;;;;;;-2.82;75.41;99314.13;4982723;23;20247;-80
2022/01/08 03:51:37;;;;;;;13.83;9.73;;;;;;;-2.87;75.68;99302.41;4977670;29;20229;-79
2022/01/08 03:54:07;;;;;;;14.40;9.90;;;;;;;-2.88;75.73;99308.63;4991995;23;20243;-80
2022/01/08 03:56:34;;;;;;;13.23;9.10;;;;;;;-3.00;76.41;99291.44;4986379;23;20231;-79
2022/01/08 03:59:12;;;;;;;12.90;9.20;;;;;;;-2.92;75.79;99313.34;4983962;23;20259;-80
2022/01/08 04:01:49;;;;;;;15.37;9.53;;;;;;;-2.82;75.78;99318.56;4980944;28;20195;-80
2022/01/08 04:04:20;;;;;;;13.47;9.13;;;;;;;-2.89;75.78;99313.03;4996319;28;20481;-80
2022/01/08 04:06:50;;;;;;;12.90;9.47;;;;;;;-2.89;75.99;99314.88;5001913;23;20232;-80
2022/01/08 04:09:22;;;;;;;14.00;9.67;;;;;;;-2.84;75.69;99317.84;4985239;23;20216;-79
2022/01/08 04:12:08;;;;;;;13.43;9.03;;;;;;;-2.81;75.73;99317.59;4982321;28;20232;-80
2022/01/08 04:14:55;;;;;;;13.27;9.57;;;;;;;-2.82;75.72;99316.75;4995008;28;20251;-79
2022/01/08 04:17:28;;;;;;;11.37;8.80;;;;;;;-2.87;76.14;99326.84;4986955;23;20239;-79
2022/01/08 04:20:16;;;;;;;11.23;8.83;;;;;;;-2.85;76.62;99311.81;4981456;23;20258;-80
2022/01/08 04:22:55;;;;;;;13.10;9.10;;;;;;;-2.80;76.89;99314.00;4990016;23;20256;-79
2022/01/08 04:25:30;;;;;;;13.57;9.30;;;;;;;-2.75;76.70;99314.38;4955071;29;20217;-80
2022/01/08 04:28:11;;;;;;;13.70;9.23;;;;;;;-2.74;76.55;99302.94;4956259;28;20221;-79
2022/01/08 04:30:44;;;;;;;14.77;9.60;;;;;;;-2.77;76.48;99303.22;4957415;29;20189;-79
2022/01/08 04:33:12;;;;;;;16.73;9.80;;;;;;;-2.71;76.95;99307.91;4956418;28;20229;-80
2022/01/08 04:35:56;;;;;;;15.13;9.70;;;;;;;-2.72;77.20;99306.25;4976708;23;20244;-80
2022/01/08 04:38:35;;;;;;;12.80;9.37;;;;;;;-2.68;76.85;99311.06;4959693;28;20304;-80
2022/01/08 04:41:12;;;;;;;13.47;9.73;;;;;;;-2.70;76.97;99306.91;4987954;23;20232;-80
2022/01/08 04:44:00;;;;;;;13.03;9.37;;;;;;;-2.67;77.20;99302.22;4989881;23;20231;-79
2022/01/08 04:46:29;;;;;;;13.33;9.67;;;;;;;-2.67;77.00;99310.09;4994983;28;20220;-80
2022/01/08 04:48:56;;;;;;;13.30;9.37;;;;;;;-2.73;76.85;99305.41;5015259;23;20263;-80
2022/01/08 04:51:33;;;;;;;13.57;10.13;;;;;;;-2.72;77.43;99298.38;4994923;28;20200;-79
2022/01/08 04:54:00;;;;;;;13.80;9.43;;;;;;;-2.74;77.37;99284.56;4995097;28;20219;-80
2022/01/08 04:56:28;;;;;;;12.43;9.47;;;;;;;-2.55;77.42;99288.91;4990359;23;20546;-79
2022/01/08 04:59:18;;;;;;;13.13;9.33;;;;;;;-2.59;76.20;99283.13;4955653;29;20182;-80
2022/01/08 05:01:49;;;;;;;12.97;9.30;;;;;;;-2.57;76.42;99293.50;4990440;23;20269;-80
2022/01/08 05:04:21;;;;;;;15.70;9.67;;;;;;;-2.63;76.92;99294.06;4973500;23;20354;-79
2022/01/08 05:07:14;;;;;;;14.97;9.33;;;;;;;-2.66;77.60;99298.63;4964434;23;20245;-79
2022/01/08 05:09:43;;;;;;;11.67;9.30;;;;;;;-2.73;77.91;99279.19;4938674;29;20621;-80
2022/01/08 05:12:20;;;;;;;12.13;9.20;;;;;;;-2.70;77.84;99283.31;4963672;23;20256;-79
2022/01/08 05:15:08;;;;;;;12.27;9.17;;;;;;;-2.63;77.71;99273.09;4955192;23;20244;-79
2022/01/08 05:17:43;;;;;;;13.13;9.23;;;;;;;-2.62;78.11;99275.56;4952078;23;20228;-80
2022/01/08 05:20:38;;;;;;;13.40;10.00;;;;;;;-2.63;77.96;99284.41;4979092;23;20221;-80
2022/01/08 05:23:25;;;;;;;16.40;9.33;;;;;;;-2.62;77.98;99286.06;4965456;23;20224;-79
2022/01/08 05:25:56;;;;;;;12.97;9.10;;;;;;;-2.60;77.97;99289.34;4975619;29;20217;-80
2022/01/08 05:28:29;;;;;;;14.20;9.47;;;;;;;-2.63;78.57;99283.56;4906217;29;20232;-79
2022/01/08 05:30:59;;;;;;;12.30;9.00;;;;;;;-2.60;78.87;99288.53;4964466;23;20174;-79
2022/01/08 05:33:36;;;;;;;14.60;9.80;;;;;;;-2.63;78.56;99275.72;4992142;23;20212;-80
2022/01/08 05:36:11;;;;;;;13.97;9.33;;;;;;;-2.60;78.42;99291.97;4992290;28;20213;-80
2022/01/08 05:38:43;;;;;;;12.77;9.57;;;;;;;-2.56;78.64;99287.25;4993831;28;20188;-80
2022/01/08 05:41:12;;;;;;;13.10;9.07;;;;;;;-2.50;78.42;99287.50;4994616;23;20224;-80
2022/01/08 05:43:43;;;;;;;12.50;8.50;;;;;;;-2.56;78.08;99272.34;4955630;29;20261;-80
2022/01/08 05:46:17;;;;;;;14.43;8.77;;;;;;;-2.49;77.76;99290.97;4970614;23;20212;-80
2022/01/08 05:48:44;;;;;;;13.90;9.47;;;;;;;-2.50;78.21;99278.81;4969494;23;20292;-80
2022/01/08 05:51:20;;;;;;;12.17;8.60;;;;;;;-2.47;77.69;99289.84;4983423;23;20231;-80
2022/01/08 05:53:53;;;;;;;13.73;8.60;;;;;;;-2.43;77.65;99285.97;4960520;28;20232;-79
2022/01/08 05:56:21;;;;;;;12.97;8.37;;;;;;;-2.43;77.37;99280.72;4936159;23;20230;-80
2022/01/08 05:59:04;;;;;;;12.00;8.83;;;;;;;-2.40;76.86;99279.59;4926338;23;20255;-80
2022/01/08 06:01:45;;;;;;;12.57;8.67;;;;;;;-2.40;77.24;99275.19;4955356;29;20200;-80
2022/01/08 06:04:35;;;;;;;13.53;9.50;;;;;;;-2.30;77.13;99290.88;4960369;23;20260;-80
2022/01/08 06:07:27;;;;;;;11.20;8.87;;;;;;;-2.31;76.99;99281.34;4895756;29;20240;-80
2022/01/08 06:09:59;;;;;;;15.50;9.73;;;;;;;-2.27;76.77;99286.16;4936572;23;20288;-80
2022/01/08 06:12:29;;;;;;;15.53;9.07;;;;;;;-2.31;76.37;99273.47;4971610;29;20260;-80
2022/01/08 06:15:01;;;;;;;13.80;9.73;;;;;;;-2.29;76.30;99280.22;4974173;28;20199;-80
2022/01/08 06:17:27;;;;;;;14.47;9.27;;;;;;;-2.28;76.23;99283.66;4973971;29;20188;-79
2022/01/08 06:20:01;;;;;;;12.43;8.80;;;;;;;-2.26;76.16;99282.56;4972443;29;20276;-79
2022/01/08 06:22:29;;;;;;;12.67;9.10;;;;;;;-2.19;76.21;99282.00;4973223;29;20231;-80
2022/01/08 06:25:01;;;;;;;14.63;9.57;;;;;;;-2.17;76.10;99285.28;4987027;23;20250;-79
2022/01/08 06:27:29;;;;;;;12.97;9.40;;;;;;;-2.22;75.52;99278.66;4961474;28;20188;-80
2022/01/08 06:29:57;;;;;;;14.20;9.00;;;;;;;-2.13;75.67;99281.38;4992256;28;20250;-80
2022/01/08 06:32:39;;;;;;;13.73;8.93;;;;;;;-2.17;75.93;99277.41;4994317;23;20209;-79
2022/01/08 06:35:15;;;;;;;11.20;8.90;;;;;;;-2.08;76.24;99287.00;4965344;23;20227;-80
2022/01/08 06:37:56;;;;;;;13.70;9.33;;;;;;;-2.09;76.62;99278.31;4978087;23;20291;-79
2022/01/08 06:40:46;;;;;;;13.43;9.90;;;;;;;-1.97;76.79;99281.56;4972170;28;20232;-79
2022/01/08 06:43:39;;;;;;;20.13;12.17;;;;;;;-2.03;76.51;99282.97;5001386;23;20228;-80
2022/01/08 06:46:06;;;;;;;17.13;12.27;;;;;;;-2.03;76.97;99267.22;4997876;23;20216;-80
2022/01/08 06:49:21;;;;;;;20.83;13.33;;;;;;;-1.98;76.30;99266.78;4987755;23;20599;-79
2022/01/08 06:51:50;;;;;;;15.77;11.13;;;;;;;-2.03;76.33;99259.34;4980054;23;20256;-80
2022/01/08 06:54:19;;;;;;;14.80;10.47;;;;;;;-1.96;76.04;99265.66;4984189;23;20236;-80
2022/01/08 06:57:16;;;;;;;14.97;10.60;;;;;;;-1.88;75.70;99263.13;4976538;28;20168;-80
2022/01/08 06:59:44;;;;;;;16.13;11.07;;;;;;;-1.90;75.46;99267.69;4960471;23;20212;-80
2022/01/08 07:02:27;;;;;;;23.00;13.33;;;;;;;-1.89;75.69;99261.47;4956785;23;20224;-80
2022/01/08 07:05:17;;;;;;;18.10;12.97;;;;;;;-1.85;75.85;99265.44;4960139;29;20189;-80
2022/01/08 07:07:50;;;;;;;19.73;12.80;;;;;;;-1.87;75.54;99262.13;4972808;28;20244;-80
2022/01/08 07:10:17;;;;;;;18.33;12.23;;;;;;;-1.84;75.53;99267.09;4973712;28;20264;-79
2022/01/08 07:12:46;;;;;;;16.73;12.17;;;;;;;-1.90;75.59;99256.34;4979016;23;20256;-80
2022/01/08 07:15:18;;;;;;;16.43;11.73;;;;;;;-1.84;75.81;99274.97;4981664;23;20213;-79
2022/01/08 07:18:07;;;;;;;19.03;12.57;;;;;;;-1.91;75.19;99252.91;4964005;23;20644;-80
2022/01/08 07:20:36;;;;;;;14.83;11.13;;;;;;;-1.76;75.75;99263.72;4994698;23;20237;-79
2022/01/08 07:23:14;;;;;;;14.73;9.67;;;;;;;-1.67;75.23;99259.34;4984746;23;20238;-79
2022/01/08 07:25:58;;;;;;;15.27;10.07;;;;;;;-1.62;74.96;99255.31;5063233;23;20237;-79
2022/01/08 07:28:55;;;;;;;13.13;10.00;;;;;;;-1.55;75.23;99252.91;4961085;29;20212;-80
2022/01/08 07:31:23;;;;;;;13.23;10.23;;;;;;;-1.49;74.94;99247.84;4987613;23;20228;-81
2022/01/08 07:33:54;;;;;;;13.63;10.00;;;;;;;-1.47;74.86;99239.81;4968296;23;20230;-80
2022/01/08 07:36:23;;;;;;;14.83;11.07;;;;;;;-1.40;74.68;99235.63;4977799;23;20212;-80
2022/01/08 07:38:55;;;;;;;15.83;10.83;;;;;;;-1.29;74.46;99237.97;4993045;28;20227;-80
2022/01/08 07:41:22;;;;;;;15.27;11.17;;;;;;;-1.25;73.76;99235.88;4941043;23;20253;-80
2022/01/08 07:43:49;;;;;;;13.90;9.90;;;;;;;-1.23;72.82;99239.19;4921692;29;20230;-79
2022/01/08 07:46:26;;;;;;;14.07;9.90;;;;;;;-1.13;73.54;99250.41;4939214;29;20191;-80
2022/01/08 07:48:54;;;;;;;14.50;10.07;;;;;;;-1.15;73.38;99233.97;4958960;23;20233;-80
2022/01/08 07:51:21;;;;;;;14.80;9.80;;;;;;;-1.01;73.59;99246.53;4957240;29;20213;-79
2022/01/08 07:53:51;;;;;;;14.40;9.43;;;;;;;-0.92;72.62;99245.59;4921538;23;20233;-79
2022/01/08 07:56:18;;;;;;;14.67;9.80;;;;;;;-0.88;71.79;99241.69;4919482;29;20226;-80
2022/01/08 07:58:45;;;;;;;11.13;9.33;;;;;;;-0.96;71.33;99245.09;4950393;23;20266;-80
2022/01/08 08:01:38;;;;;;;15.57;9.07;;;;;;;-0.99;71.14;99229.66;4969722;28;20239;-80
2022/01/08 08:04:40;;;;;;;12.53;8.70;;;;;;;-0.93;70.92;99243.94;4996714;28;20204;-79
2022/01/08 08:07:14;;;;;;;14.27;9.17;;;;;;;-0.91;71.13;99244.63;4997357;28;20220;-80
2022/01/08 08:09:42;;;;;;;12.83;9.50;;;;;;;-0.90;70.94;99241.03;4996493;28;20200;-80
2022/01/08 08:12:14;;;;;;;14.63;9.70;;;;;;;-0.81;70.58;99236.63;4996570;28;20196;-81
2022/01/08 08:14:54;;;;;;;15.23;9.83;;;;;;;-0.71;71.01;99232.09;5008475;23;20227;-79
2022/01/08 08:17:25;;;;;;;13.77;9.43;;;;;;;-0.60;69.83;99235.25;4991738;23;20235;-80
2022/01/08 08:20:19;;;;;;;12.90;9.87;;;;;;;-0.49;69.35;99237.59;4980540;28;20196;-80
2022/01/08 08:22:48;;;;;;;12.43;9.50;;;;;;;-0.52;69.35;99232.66;4949387;23;20288;-80
2022/01/08 08:25:28;;;;;;;13.50;9.67;;;;;;;-0.46;70.26;99242.53;4951374;29;20185;-80
2022/01/08 08:27:58;;;;;;;11.63;9.20;;;;;;;-0.68;68.03;99234.38;4958956;23;20233;-79
2022/01/08 08:30:43;;;;;;;11.53;8.73;;;;;;;-0.63;69.22;99246.09;4915779;29;20237;-80
2022/01/08 08:33:15;;;;;;;11.83;9.00;;;;;;;-0.54;68.75;99239.06;4933248;29;20198;-80
2022/01/08 08:36:25;;;;;;;13.83;9.60;;;;;;;-0.54;69.26;99241.69;5022992;23;20229;-80
2022/01/08 08:39:08;;;;;;;12.63;9.20;;;;;;;-0.45;68.66;99252.09;4935649;29;20202;-80
2022/01/08 08:41:56;;;;;;;13.93;8.93;;;;;;;-0.42;67.89;99253.56;4935065;29;20240;-80
2022/01/08 08:44:39;;;;;;;12.13;9.43;;;;;;;-0.29;67.41;99256.59;4932921;29;20228;-80
2022/01/08 08:47:24;;;;;;;12.20;10.40;;;;;;;-0.30;67.55;99272.53;4971069;23;20224;-80
2022/01/08 08:50:23;;;;;;;13.37;9.40;;;;;;;-0.26;67.14;99279.13;5000523;23;20571;-79
2022/01/08 08:52:57;;;;;;;13.57;10.07;;;;;;;-0.20;67.76;99281.16;4988878;23;20259;-79
2022/01/08 08:55:38;;;;;;;12.13;9.60;;;;;;;-0.09;67.89;99267.66;4996179;23;20299;-80
2022/01/08 08:58:08;;;;;;;13.13;10.10;;;;;;;-0.15;67.12;99265.69;4978799;23;20209;-80
2022/01/08 09:00:49;;;;;;;13.17;9.97;;;;;;;-0.04;66.54;99250.41;4980162;28;20231;-80
2022/01/08 09:11:29;;;;;;;12.03;8.30;;;;;;;0.69;63.36;99268.13;5132727;23;20191;-79
2022/01/08 09:17:49;;;;;;;13.77;8.27;;;;;;;0.63;63.61;99268.75;5549305;23;20204;-80
2022/01/08 09:20:17;;;;;;;11.47;8.50;;;;;;;0.91;63.94;99271.88;5220136;23;20234;-80
2022/01/08 09:23:13;;;;;;;11.60;8.67;;;;;;;1.07;63.12;99274.50;5006651;23;20216;31
2022/01/08 09:25:54;;;;;;;16.07;12.17;;;;;;;0.91;63.76;99267.44;4973991;23;20240;-79
2022/01/08 09:28:37;;;;;;;11.17;9.23;;;;;;;1.26;63.81;99274.13;4977716;29;20231;-79
2022/01/08 09:31:44;;;;;;;10.50;7.87;;;;;;;1.36;62.52;99266.81;4965694;23;21387;-79
2022/01/08 09:34:40;;;;;;;10.87;7.67;;;;;;;1.38;61.40;99267.50;4982155;23;20222;-80
2022/01/08 09:37:21;;;;;;;11.00;8.03;;;;;;;1.48;62.15;99268.13;5084351;23;20303;-79
2022/01/08 09:39:50;;;;;;;13.77;9.60;;;;;;;1.62;61.75;99254.22;4967093;23;20228;-80
2022/01/08 09:42:25;;;;;;;14.83;13.37;;;;;;;1.42;62.05;99247.69;4938596;29;20626;-80
2022/01/08 09:45:13;;;;;;;11.63;9.13;;;;;;;1.18;62.73;99260.94;4956125;23;20248;-80
2022/01/08 09:47:40;;;;;;;11.97;8.90;;;;;;;1.26;62.37;99256.47;4953138;29;20170;-80
2022/01/08 09:50:11;;;;;;;12.40;9.60;;;;;;;1.45;62.21;99247.34;4968572;23;20236;-81
2022/01/08 09:52:45;;;;;;;12.03;8.47;;;;;;;1.48;61.22;99243.53;4963246;23;20292;-81
2022/01/08 09:55:31;;;;;;;10.17;8.23;;;;;;;1.66;61.75;99249.41;4960675;23;20243;-81
2022/01/08 09:58:11;;;;;;;10.13;8.57;;;;;;;1.67;61.94;99249.25;5039731;23;20249;-80
2022/01/08 10:00:39;;;;;;;12.20;8.37;;;;;;;1.69;61.05;99241.13;4955100;29;20205;-80
2022/01/08 10:03:31;;;;;;;14.77;8.23;;;;;;;1.74;61.87;99241.44;4972338;23;20212;-80
2022/01/08 10:06:32;;;;;;;11.43;8.40;;;;;;;2.01;60.58;99237.47;4977390;28;20216;-80
2022/01/08 10:08:59;;;;;;;10.73;8.50;;;;;;;1.90;60.17;99227.31;4961967;28;20295;-81
2022/01/08 10:11:32;;;;;;;11.10;8.63;;;;;;;2.17;61.87;99232.09;4983155;23;20239;-81
2022/01/08 10:14:39;;;;;;;13.77;8.90;;;;;;;2.15;61.03;99227.00;5145386;23;20192;-81
2022/01/08 10:17:17;;;;;;;11.37;9.70;;;;;;;2.23;59.25;99228.78;4954801;28;20213;-81
2022/01/08 10:20:00;;;;;;;10.73;9.00;;;;;;;2.14;58.51;99220.09;4969385;23;20220;-81
2022/01/08 10:22:28;;;;;;;22.20;16.10;;;;;;;2.18;58.34;99221.38;4972584;29;20228;-80
2022/01/08 10:25:26;;;;;;;21.23;14.90;;;;;;;1.89;59.79;99223.88;4978339;23;20329;-81
2022/01/08 10:27:54;;;;;;;13.67;11.80;;;;;;;1.94;60.03;99218.88;4950613;23;20242;-81
2022/01/08 10:30:26;;;;;;;17.87;14.27;;;;;;;1.80;59.52;99213.50;4949428;23;20955;-80
2022/01/08 10:33:21;;;;;;;15.77;13.20;;;;;;;1.68;59.88;99218.38;4949355;23;20218;-80
2022/01/08 10:35:52;;;;;;;11.20;8.90;;;;;;;1.77;60.66;99215.50;4936074;29;20234;-81
2022/01/08 10:39:07;;;;;;;10.50;9.37;;;;;;;1.99;60.96;99221.81;4969813;23;20212;-80
2022/01/08 10:41:42;;;;;;;10.60;8.33;;;;;;;1.82;59.48;99200.97;4972449;29;20704;-80
2022/01/08 10:44:32;;;;;;;11.83;8.27;;;;;;;1.95;60.53;99199.41;5000220;23;20228;-79
2022/01/08 10:47:29;;;;;;;10.63;8.63;;;;;;;2.21;60.49;99197.22;4937366;23;20229;-80
2022/01/08 10:50:06;;;;;;;10.17;8.13;;;;;;;2.37;59.72;99187.53;4916993;29;20221;-80
2022/01/08 10:52:54;;;;;;;9.20;8.10;;;;;;;2.38;59.75;99176.75;4911329;29;20225;-80
2022/01/08 10:55:32;;;;;;;11.50;9.43;;;;;;;2.34;58.83;99179.94;4929455;29;20261;-80
2022/01/08 10:58:41;;;;;;;18.30;16.40;;;;;;;2.39;58.91;99181.03;4939950;23;20284;-80
2022/01/08 11:01:58;;;;;;;18.80;16.87;;;;;;;2.38;58.77;99178.59;4955118;29;20240;-80
2022/01/08 11:04:51;;;;;;;11.10;8.60;;;;;;;2.11;58.25;99175.50;4950564;29;20229;-80
2022/01/08 11:07:24;;;;;;;11.03;7.87;;;;;;;2.12;58.90;99174.50;4954461;29;20229;-80
2022/01/08 11:10:04;;;;;;;9.90;8.20;;;;;;;1.96;58.53;99160.59;4950797;29;20217;-80
2022/01/08 11:12:40;;;;;;;11.13;9.00;;;;;;;2.05;59.07;99168.25;4929447;29;20228;-80
2022/01/08 11:15:35;;;;;;;10.57;8.40;;;;;;;2.06;58.27;99169.09;4917588;29;20225;-79
2022/01/08 11:18:27;;;;;;;10.43;8.10;;;;;;;1.99;58.97;99162.88;4942270;29;20233;-80
2022/01/08 11:20:58;;;;;;;10.07;8.20;;;;;;;1.93;59.77;99171.50;4934139;29;20547;-80
2022/01/08 11:23:34;;;;;;;10.83;8.50;;;;;;;1.95;59.01;99161.59;4922122;29;20233;-80
2022/01/08 11:26:03;;;;;;;11.57;8.43;;;;;;;1.86;59.38;99150.25;4951737;29;20256;-80
2022/01/08 11:28:54;;;;;;;10.20;8.30;;;;;;;1.91;60.44;99147.09;4957033;29;20276;-80
2022/01/08 11:31:31;;;;;;;9.40;8.30;;;;;;;1.96;60.27;99132.31;4942060;29;20281;-80
2022/01/08 11:34:09;;;;;;;12.53;8.17;;;;;;;2.11;61.33;99121.81;4957131;29;20218;-80
2022/01/08 11:36:51;;;;;;;11.87;8.57;;;;;;;2.26;59.30;99121.84;4958016;29;20221;-80
2022/01/08 11:39:26;;;;;;;9.47;8.20;;;;;;;2.45;58.71;99122.19;4959513;29;20169;-80
2022/01/08 11:42:03;;;;;;;10.53;8.40;;;;;;;2.34;59.27;99125.25;4971302;23;20232;-80
2022/01/08 11:44:38;;;;;;;10.87;8.37;;;;;;;2.47;59.72;99124.66;5021731;23;20225;-80
2022/01/08 11:48:11;;;;;;;10.17;8.30;;;;;;;2.63;59.59;99120.00;4949515;29;20229;-80
2022/01/08 11:50:54;;;;;;;10.77;8.67;;;;;;;2.63;57.75;99127.13;4955629;29;20190;-80
2022/01/08 11:53:26;;;;;;;12.70;8.17;;;;;;;2.31;58.51;99115.03;4955670;29;20233;-80
2022/01/08 11:56:06;;;;;;;10.03;9.03;;;;;;;2.40;58.72;99121.06;4943467;29;20240;-80
2022/01/08 11:59:13;;;;;;;10.67;8.37;;;;;;;2.51;58.41;99125.94;4960158;28;20169;-80
2022/01/08 12:02:21;;;;;;;11.77;8.97;;;;;;;2.53;58.14;99127.38;4960614;29;20228;-81
2022/01/08 12:04:52;;;;;;;11.33;8.80;;;;;;;2.58;57.26;99121.53;4942860;29;20301;-80
2022/01/08 12:07:58;;;;;;;11.13;8.67;;;;;;;2.52;57.94;99117.78;4943407;29;20213;-80
2022/01/08 12:11:00;;;;;;;11.53;8.80;;;;;;;2.62;57.69;99113.06;4957382;29;20229;-80
2022/01/08 12:13:46;;;;;;;11.40;8.53;;;;;;;2.58;57.61;99119.72;4941370;29;20221;-80
2022/01/08 12:20:56;;;;;;;11.80;8.97;;;;;;;2.70;57.83;99116.66;4963537;28;20161;-81
2022/01/08 12:24:20;;;;;;;12.60;9.40;;;;;;;2.72;58.42;99119.91;4957761;29;20222;-80
2022/01/08 12:28:05;;;;;;;20.27;18.07;;;;;;;2.65;57.42;99111.91;4957473;29;20181;-81
2022/01/08 12:30:41;;;;;;;15.17;11.53;;;;;;;2.58;58.36;99110.97;4959383;29;20185;-80
2022/01/08 12:33:27;;;;;;;18.47;11.73;;;;;;;2.77;58.11;99110.44;4958799;29;20221;-80
2022/01/08 12:36:51;;;;;;;11.50;9.40;;;;;;;2.62;58.28;99112.25;4958147;29;20226;-80
2022/01/08 12:39:47;;;;;;;12.57;9.40;;;;;;;2.60;57.68;99103.69;4959112;28;20197;-80
2022/01/08 12:42:47;;;;;;;12.53;9.47;;;;;;;2.53;57.55;99106.22;4988435;23;20334;-80
2022/01/08 12:45:35;;;;;;;12.77;9.30;;;;;;;2.45;57.68;99105.47;5003828;23;20247;-80
2022/01/08 12:48:25;;;;;;;10.60;8.40;;;;;;;2.39;57.49;99101.72;4982482;28;20247;-80
2022/01/08 12:51:05;;;;;;;13.50;9.40;;;;;;;2.38;57.99;99086.88;5003581;23;20215;-80
2022/01/08 12:53:36;;;;;;;11.27;9.10;;;;;;;2.47;57.42;99100.84;5007252;23;20207;-80
2022/01/08 12:57:00;;;;;;;13.27;9.80;;;;;;;2.44;58.16;99088.78;4955434;23;20229;-80
2022/01/08 13:00:22;;;;;;;11.73;9.27;;;;;;;2.30;58.34;99088.78;4972645;23;20208;-79
2022/01/08 13:03:56;;;;;;;12.93;9.00;;;;;;;2.38;57.90;99092.16;4969992;23;20264;-80
2022/01/08 13:06:51;;;;;;;11.07;9.17;;;;;;;2.28;58.05;99083.69;4999896;23;20243;-80
2022/01/08 13:09:43;;;;;;;13.63;9.63;;;;;;;2.36;58.72;99085.41;4991125;23;20232;-80
2022/01/08 13:12:25;;;;;;;12.40;9.37;;;;;;;2.24;58.43;99078.94;4977472;28;20202;-80
2022/01/08 13:15:04;;;;;;;12.83;9.23;;;;;;;2.36;57.96;99102.09;4989478;23;20236;-80